Time;durP1;ratioP1;P1;durP2;ratioP2;P2;SDS_P1;SDS_P2;PMS_P1;PMS_P2;Temp;Humidity;BMP_temperature;BMP_pressure;BME280_temperature;BME280_humidity;BME280_pressure;Samples;Min_cycle;Max_cycle;Signal;HPM_P1;HPM_P2
2021/10/27 00:00:29;;;;;;;9.13;6.00;;;;;;;11.17;84.13;101403.59;5012107;28;20045;-64
2021/10/27 00:02:54;;;;;;;12.13;7.20;;;;;;;10.81;84.73;101325.16;5012396;28;20464;-65
2021/10/27 00:05:19;;;;;;;9.18;6.15;;;;;;;11.02;84.65;101387.34;5012075;28;20022;-65
2021/10/27 00:07:45;;;;;;;9.93;6.05;;;;;;;10.90;85.08;101395.34;5011981;28;20029;-65
2021/10/27 00:10:11;;;;;;;15.02;8.50;;;;;;;10.85;85.14;101399.41;5012102;28;20037;-64
2021/10/27 00:12:38;;;;;;;13.15;8.38;;;;;;;10.88;84.20;101390.91;5011900;28;20534;-66
2021/10/27 00:15:06;;;;;;;18.85;12.48;;;;;;;10.09;84.64;101235.47;5005480;28;20473;-66
2021/10/27 00:17:33;;;;;;;19.42;10.38;;;;;;;10.99;85.10;101380.31;5011457;28;20033;-66
2021/10/27 00:19:58;;;;;;;12.15;8.32;;;;;;;11.07;84.60;101382.41;5011836;28;20022;-65
2021/10/27 00:22:24;;;;;;;11.63;6.75;;;;;;;11.13;85.33;101386.16;5009181;28;20049;-67
2021/10/27 00:24:50;;;;;;;12.05;6.25;;;;;;;11.20;85.37;101378.72;4992494;28;20382;-67
2021/10/27 00:27:15;;;;;;;13.20;6.70;;;;;;;11.23;85.33;101379.75;4992475;28;20464;-65
2021/10/27 00:29:41;;;;;;;13.70;7.20;;;;;;;11.23;85.60;101377.19;4993552;28;20048;-66
2021/10/27 00:32:07;;;;;;;14.13;6.90;;;;;;;10.79;85.42;101324.19;5005366;28;20395;-65
2021/10/27 00:34:33;;;;;;;13.98;7.60;;;;;;;10.76;86.14;101324.03;5024186;28;20468;-65
2021/10/27 00:36:59;;;;;;;14.02;8.68;;;;;;;10.78;86.21;101382.72;5011820;28;20105;-65
2021/10/27 00:39:25;;;;;;;9.10;6.22;;;;;;;10.14;88.30;101370.78;5005201;28;20065;-67
2021/10/27 00:41:51;;;;;;;8.93;5.40;;;;;;;10.09;89.03;101363.59;4992253;28;20061;-64
2021/10/27 00:44:19;;;;;;;7.43;5.75;;;;;;;10.03;90.48;101374.47;5007976;28;20034;-65
2021/10/27 00:46:45;;;;;;;15.07;6.18;;;;;;;10.17;90.53;101375.22;4993212;28;20489;-67
2021/10/27 00:49:10;;;;;;;10.40;6.65;;;;;;;10.25;90.16;101366.19;4992855;28;20034;-68
2021/10/27 00:51:36;;;;;;;10.48;6.80;;;;;;;10.42;89.54;101371.34;4993758;28;20034;-66
2021/10/27 00:54:02;;;;;;;9.02;6.25;;;;;;;10.57;88.78;101376.47;4992694;28;20062;-66
2021/10/27 00:56:29;;;;;;;11.85;6.13;;;;;;;10.62;88.81;101381.03;4996541;28;20030;-67
2021/10/27 00:58:55;;;;;;;9.80;6.25;;;;;;;10.68;89.21;101383.06;4995993;28;20041;-67
2021/10/27 01:01:21;;;;;;;10.02;6.28;;;;;;;10.71;89.09;101385.78;5042522;28;20046;-67
2021/10/27 01:03:46;;;;;;;9.73;4.60;;;;;;;10.72;85.97;101389.28;5011757;28;20064;-67
2021/10/27 01:06:12;;;;;;;9.90;4.20;;;;;;;10.47;85.06;101382.84;5011594;28;20100;-66
2021/10/27 01:08:38;;;;;;;6.22;4.25;;;;;;;10.14;87.58;101385.38;5011688;28;20091;-67
2021/10/27 01:11:04;;;;;;;5.88;3.80;;;;;;;9.79;89.21;101363.72;5013291;28;20068;-66
2021/10/27 01:13:30;;;;;;;6.47;3.50;;;;;;;9.35;88.78;101280.56;5015809;28;20029;-66
2021/10/27 01:15:56;;;;;;;6.75;3.78;;;;;;;9.33;88.61;101261.56;5046299;28;20046;-66
2021/10/27 01:18:22;;;;;;;5.70;3.58;;;;;;;10.12;89.33;101363.75;5032578;28;20130;-67
2021/10/27 01:20:48;;;;;;;8.43;3.60;;;;;;;10.10;88.58;101366.25;5033058;28;20052;-66
2021/10/27 01:23:13;;;;;;;6.65;3.47;;;;;;;9.99;88.74;101364.78;5033155;28;20045;-66
2021/10/27 01:25:39;;;;;;;7.43;4.45;;;;;;;10.02;89.58;101354.66;5032880;28;20037;-66
2021/10/27 01:28:04;;;;;;;7.47;3.83;;;;;;;9.70;88.72;101297.06;4999760;28;20041;-66
2021/10/27 01:30:30;;;;;;;9.80;4.15;;;;;;;10.13;89.26;101374.19;5032784;28;20042;-66
2021/10/27 01:32:56;;;;;;;8.18;4.88;;;;;;;10.08;89.62;101362.72;5032490;28;20090;-66
2021/10/27 01:35:21;;;;;;;9.23;5.40;;;;;;;9.79;90.06;101332.78;5032460;28;20021;-66
2021/10/27 01:37:47;;;;;;;9.45;5.65;;;;;;;9.49;92.51;101356.94;5032568;28;20461;-66
2021/10/27 01:40:19;;;;;;;8.88;6.15;;;;;;;9.32;93.92;101368.00;5032488;28;20478;-66
2021/10/27 01:42:45;;;;;;;10.25;5.93;;;;;;;8.74;94.04;101273.75;5032535;28;20041;-66
2021/10/27 01:45:13;;;;;;;8.20;5.97;;;;;;;9.39;94.29;101352.09;5032442;28;20049;-66
2021/10/27 01:47:43;;;;;;;10.80;6.72;;;;;;;9.47;93.32;101343.13;5032373;28;20124;-66
2021/10/27 01:50:10;;;;;;;11.13;6.38;;;;;;;9.62;93.24;101358.53;5032227;28;20146;-66
2021/10/27 01:52:36;;;;;;;9.50;6.45;;;;;;;9.58;92.97;101354.00;5032222;28;20040;-66
2021/10/27 01:55:01;;;;;;;9.18;5.97;;;;;;;9.01;94.09;101276.09;5028852;28;20046;-66
2021/10/27 01:57:28;;;;;;;11.48;6.97;;;;;;;9.57;93.86;101359.06;5015375;28;20030;-66
2021/10/27 01:59:53;;;;;;;10.63;6.15;;;;;;;9.66;92.90;101350.16;5014928;28;20456;-67
2021/10/27 02:02:19;;;;;;;11.15;6.50;;;;;;;9.70;92.71;101352.09;5014595;28;20025;-67
2021/10/27 02:04:44;;;;;;;12.10;6.93;;;;;;;9.10;93.03;101250.88;5014868;28;20088;-66
2021/10/27 02:07:10;;;;;;;10.75;6.82;;;;;;;9.46;93.57;101338.75;5014624;28;20081;-66
2021/10/27 02:09:37;;;;;;;9.70;6.90;;;;;;;9.51;94.20;101357.94;5014793;28;20064;-66
2021/10/27 02:12:04;;;;;;;10.30;6.95;;;;;;;9.51;94.66;101355.34;5014648;28;20026;-65
2021/10/27 02:14:30;;;;;;;11.63;7.63;;;;;;;9.26;95.61;101365.09;5014655;28;20030;-66
2021/10/27 02:16:55;;;;;;;10.82;7.80;;;;;;;9.22;95.63;101364.00;5014606;28;20088;-66
2021/10/27 02:19:21;;;;;;;12.00;8.02;;;;;;;9.02;96.96;101362.88;5014298;28;20026;-66
2021/10/27 02:21:46;;;;;;;14.65;7.57;;;;;;;8.83;97.88;101366.97;5013597;28;20137;-66
2021/10/27 02:24:12;;;;;;;12.40;8.82;;;;;;;8.80;98.90;101374.53;5011886;28;20386;-66
2021/10/27 02:26:37;;;;;;;16.25;9.45;;;;;;;8.77;99.11;101374.31;5014742;28;20034;-65
2021/10/27 02:29:03;;;;;;;13.05;9.27;;;;;;;8.79;99.33;101385.63;5014363;28;20068;-66
2021/10/27 02:31:29;;;;;;;13.10;9.38;;;;;;;8.91;98.80;101370.00;5014181;28;20030;-66
2021/10/27 02:33:54;;;;;;;14.38;9.55;;;;;;;8.98;98.88;101368.66;5014348;28;20022;-66
2021/10/27 02:36:20;;;;;;;11.80;9.48;;;;;;;9.02;98.54;101371.53;5014107;28;20398;-65
2021/10/27 02:38:45;;;;;;;14.00;10.15;;;;;;;8.96;97.68;101324.81;5012910;28;20076;-66
2021/10/27 02:41:12;;;;;;;13.95;10.30;;;;;;;9.27;97.04;101372.03;5014235;28;20040;-66
2021/10/27 02:43:38;;;;;;;14.32;10.38;;;;;;;8.65;97.57;101271.53;5014047;28;20076;-66
2021/10/27 02:46:04;;;;;;;13.85;9.18;;;;;;;9.27;97.01;101361.72;5013837;28;20033;-67
2021/10/27 02:48:29;;;;;;;15.57;10.18;;;;;;;9.20;97.22;101363.94;5014158;28;20112;-66
2021/10/27 02:50:55;;;;;;;12.40;10.00;;;;;;;8.61;98.52;101309.88;5014041;28;20164;-66
2021/10/27 02:53:21;;;;;;;18.02;10.80;;;;;;;8.64;100.00;101356.41;5014100;28;20030;-65
2021/10/27 02:55:47;;;;;;;12.93;10.27;;;;;;;8.77;100.00;101382.06;5013656;28;20022;-66
2021/10/27 02:58:12;;;;;;;14.38;10.13;;;;;;;8.83;100.00;101377.25;5013961;28;20037;-66
2021/10/27 03:00:38;;;;;;;12.73;10.35;;;;;;;8.77;100.00;101379.47;5013480;28;20026;-66
2021/10/27 03:03:04;;;;;;;14.38;10.40;;;;;;;8.70;100.00;101367.94;5013756;28;20083;-67
2021/10/27 03:05:30;;;;;;;15.82;10.70;;;;;;;8.98;100.00;101390.16;5013709;28;20030;-66
2021/10/27 03:07:55;;;;;;;14.20;10.90;;;;;;;9.09;99.29;101387.31;5044340;28;20034;-66
2021/10/27 03:10:21;;;;;;;14.15;10.65;;;;;;;9.10;99.05;101361.66;4999465;28;20057;-66
2021/10/27 03:12:46;;;;;;;14.18;10.70;;;;;;;8.97;97.60;101295.69;4994013;28;20089;-65
2021/10/27 03:15:12;;;;;;;13.40;9.93;;;;;;;9.45;96.25;101380.78;4993616;28;20054;-66
2021/10/27 03:17:38;;;;;;;13.45;10.65;;;;;;;9.40;96.76;101379.66;4993651;28;20057;-67
2021/10/27 03:20:04;;;;;;;14.52;10.13;;;;;;;9.52;96.51;101393.22;4993871;28;20105;-67
2021/10/27 03:22:30;;;;;;;15.55;10.18;;;;;;;9.64;95.84;101392.13;4993865;28;20046;-67
2021/10/27 03:24:55;;;;;;;16.52;10.73;;;;;;;9.63;95.50;101382.63;4999032;28;20026;-66
2021/10/27 03:27:21;;;;;;;13.82;10.13;;;;;;;9.64;95.07;101382.69;5012075;28;20033;-65
2021/10/27 03:29:46;;;;;;;16.02;10.23;;;;;;;9.65;95.53;101401.66;5028135;28;20076;-67
2021/10/27 03:32:13;;;;;;;13.05;10.80;;;;;;;9.61;95.50;101394.53;5013074;28;20124;-66
2021/10/27 03:34:39;;;;;;;12.90;9.90;;;;;;;9.46;96.61;101405.78;5012866;28;20122;-66
2021/10/27 03:37:06;;;;;;;14.40;10.13;;;;;;;9.19;97.92;101402.50;5027332;28;20044;-66
2021/10/27 03:39:32;;;;;;;14.95;11.02;;;;;;;9.29;97.80;101407.38;5013107;28;20025;-66
2021/10/27 03:41:57;;;;;;;14.13;10.55;;;;;;;9.46;96.87;101410.00;5012808;28;20084;-68
2021/10/27 03:44:23;;;;;;;14.57;10.10;;;;;;;9.58;96.37;101402.97;5012910;28;20034;-66
2021/10/27 03:46:49;;;;;;;16.95;13.55;;;;;;;9.74;96.18;101396.97;5012905;28;20105;-64
2021/10/27 03:49:15;;;;;;;14.52;11.07;;;;;;;9.88;94.81;101400.31;5013234;28;20065;-66
2021/10/27 03:51:41;;;;;;;16.75;11.10;;;;;;;9.88;94.51;101396.06;5013186;28;20502;-66
2021/10/27 03:54:07;;;;;;;16.35;10.63;;;;;;;10.07;93.98;101401.31;5012802;28;20108;-67
2021/10/27 03:56:32;;;;;;;13.65;10.85;;;;;;;9.98;93.67;101387.13;5012932;28;20040;-66
2021/10/27 03:58:58;;;;;;;16.90;10.70;;;;;;;9.24;94.11;101321.19;5012784;28;20044;-65
2021/10/27 04:01:23;;;;;;;13.85;10.65;;;;;;;9.70;95.09;101402.78;5012645;28;20037;-65
2021/10/27 04:03:49;;;;;;;19.67;11.90;;;;;;;9.55;96.15;101405.41;5012292;28;20034;-65
2021/10/27 04:06:14;;;;;;;17.15;12.25;;;;;;;9.51;96.51;101412.06;5012790;28;20088;-66
2021/10/27 04:08:40;;;;;;;20.23;12.00;;;;;;;8.84;97.38;101318.94;5012911;28;20050;-66
2021/10/27 04:11:05;;;;;;;16.10;11.55;;;;;;;9.29;97.83;101411.66;5012014;28;20030;-66
2021/10/27 04:13:31;;;;;;;15.82;12.30;;;;;;;9.36;97.77;101412.09;5012558;28;20506;-66
2021/10/27 04:15:57;;;;;;;18.88;13.13;;;;;;;9.22;98.22;101398.41;5012440;28;20034;-66
2021/10/27 04:18:22;;;;;;;19.02;12.30;;;;;;;8.84;98.15;101344.69;5012407;28;20041;-66
2021/10/27 04:20:48;;;;;;;25.40;17.55;;;;;;;9.26;98.27;101427.84;5012322;28;20041;-66
2021/10/27 04:23:13;;;;;;;21.55;15.48;;;;;;;9.22;98.59;101421.59;5012296;28;20034;-67
2021/10/27 04:25:39;;;;;;;18.00;14.02;;;;;;;9.13;99.02;101421.06;5012190;28;20050;-67
2021/10/27 04:28:05;;;;;;;21.90;13.88;;;;;;;8.76;99.59;101356.22;5012270;28;20049;-68
2021/10/27 04:30:32;;;;;;;22.70;14.13;;;;;;;9.23;99.74;101419.91;5010284;28;20037;-66
2021/10/27 04:32:57;;;;;;;18.90;13.93;;;;;;;9.30;98.87;101419.47;5011859;28;20488;-67
2021/10/27 04:35:25;;;;;;;19.15;14.82;;;;;;;9.46;98.88;101422.91;5011938;28;20092;-66
2021/10/27 04:37:50;;;;;;;20.30;13.23;;;;;;;9.42;97.33;101402.91;5012125;28;20048;-66
2021/10/27 04:40:18;;;;;;;22.52;15.05;;;;;;;9.07;97.55;101333.13;5012074;28;20197;-66
2021/10/27 04:42:45;;;;;;;17.35;14.20;;;;;;;8.85;97.74;101320.72;5012304;28;20034;-66
2021/10/27 04:45:11;;;;;;;17.73;14.10;;;;;;;9.52;97.56;101431.00;5011334;28;20062;-66
2021/10/27 04:47:37;;;;;;;21.45;14.52;;;;;;;9.46;97.20;101425.47;5010839;28;20113;-67
2021/10/27 04:50:07;;;;;;;27.98;16.95;;;;;;;9.35;97.97;101432.63;5011943;28;20030;-66
2021/10/27 04:52:33;;;;;;;24.38;16.30;;;;;;;9.48;97.30;101429.03;5026025;28;20104;-66
2021/10/27 04:54:59;;;;;;;22.10;17.98;;;;;;;9.48;96.98;101435.09;5011907;28;20052;-66
2021/10/27 04:57:25;;;;;;;23.98;17.67;;;;;;;9.41;97.36;101438.13;5011486;28;20450;-64
2021/10/27 04:59:51;;;;;;;22.33;17.75;;;;;;;9.11;98.56;101440.72;5026047;28;20041;-67
2021/10/27 05:02:17;;;;;;;26.08;19.55;;;;;;;9.12;98.82;101439.00;5011959;28;20108;-67
2021/10/27 05:04:43;;;;;;;24.58;18.98;;;;;;;9.11;98.70;101442.38;5011850;28;20376;-66
2021/10/27 05:07:13;;;;;;;23.63;18.77;;;;;;;8.89;99.19;101423.97;5011945;28;20368;-67
2021/10/27 05:09:39;;;;;;;23.50;18.65;;;;;;;9.01;99.47;101446.09;5011771;28;20026;-66
2021/10/27 05:12:05;;;;;;;31.13;24.52;;;;;;;9.00;99.64;101447.78;5011421;28;20468;-66
2021/10/27 05:14:32;;;;;;;27.42;19.75;;;;;;;8.98;99.78;101458.81;5011912;28;20034;-66
2021/10/27 05:16:57;;;;;;;25.38;20.05;;;;;;;9.00;99.65;101458.09;5011601;28;20495;-66
2021/10/27 05:19:23;;;;;;;30.60;20.60;;;;;;;9.05;99.56;101453.22;5011334;28;20062;-66
2021/10/27 05:21:49;;;;;;;25.98;20.65;;;;;;;8.99;99.56;101442.56;5011326;28;20128;-67
2021/10/27 05:24:14;;;;;;;30.90;22.42;;;;;;;9.31;99.26;101472.78;5011684;28;20469;-65
2021/10/27 05:26:40;;;;;;;33.10;27.08;;;;;;;9.45;97.85;101467.56;5011513;28;20383;-67
2021/10/27 05:29:05;;;;;;;36.80;28.08;;;;;;;9.52;97.39;101467.97;5011527;28;20427;-66
2021/10/27 05:31:31;;;;;;;35.15;25.58;;;;;;;9.46;97.81;101467.63;5011392;28;20088;-66
2021/10/27 05:33:56;;;;;;;33.13;24.15;;;;;;;9.52;97.12;101459.34;5011523;28;20026;-66
2021/10/27 05:36:22;;;;;;;29.70;22.70;;;;;;;9.52;96.06;101472.22;5011827;28;20022;-66
2021/10/27 05:38:47;;;;;;;29.90;21.38;;;;;;;8.88;97.09;101398.13;5011278;28;20055;-65
2021/10/27 05:41:13;;;;;;;29.55;21.08;;;;;;;9.29;98.00;101476.06;5011303;28;20105;-66
2021/10/27 05:43:39;;;;;;;26.73;21.65;;;;;;;9.13;98.01;101476.84;5011379;28;20113;-66
2021/10/27 05:46:04;;;;;;;24.58;20.45;;;;;;;9.06;98.37;101485.94;5011221;28;20022;-67
2021/10/27 05:48:38;;;;;;;25.40;19.92;;;;;;;9.00;98.53;101480.41;5011455;28;20037;-66
2021/10/27 05:56:19;;;;;;;28.27;21.20;;;;;;;9.09;99.26;101496.41;5011628;28;20503;-67
2021/10/27 05:58:45;;;;;;;28.38;21.17;;;;;;;9.05;98.66;101495.31;5014898;28;20034;-66
2021/10/27 06:01:11;;;;;;;28.15;21.55;;;;;;;8.94;98.66;101468.03;5014778;28;20036;-66
2021/10/27 06:03:37;;;;;;;27.65;20.23;;;;;;;9.01;98.52;101500.19;5014685;28;20034;-66
2021/10/27 06:06:03;;;;;;;26.85;19.75;;;;;;;8.93;99.33;101501.44;5014485;28;20112;-66
2021/10/27 06:08:28;;;;;;;30.95;20.52;;;;;;;8.77;100.00;101492.75;5014719;28;20030;-67
2021/10/27 06:10:58;;;;;;;28.80;20.10;;;;;;;8.90;99.64;101505.59;5014854;28;20034;-66
2021/10/27 06:13:33;;;;;;;27.55;19.60;;;;;;;9.05;99.13;101515.94;5014702;28;20037;-66
2021/10/27 06:15:58;;;;;;;28.27;20.38;;;;;;;8.75;99.46;101442.88;5012601;28;20045;-65
2021/10/27 06:18:24;;;;;;;28.98;21.33;;;;;;;9.36;99.13;101520.31;5012157;28;20033;-66
2021/10/27 06:20:50;;;;;;;39.55;32.08;;;;;;;9.30;97.46;101485.59;5013799;28;20503;-66
2021/10/27 06:23:16;;;;;;;35.15;29.83;;;;;;;9.42;96.60;101526.63;5014431;28;20025;-66
2021/10/27 06:25:42;;;;;;;25.63;22.67;;;;;;;9.42;97.07;101516.31;5013633;28;20030;-69
2021/10/27 06:28:11;;;;;;;28.75;21.40;;;;;;;9.52;96.46;101524.69;5013965;28;20037;-66
2021/10/27 06:36:31;;;;;;;23.08;17.98;;;;;;;9.83;95.02;101536.78;4990037;28;20030;-67
2021/10/27 06:39:13;;;;;;;23.48;18.45;;;;;;;9.70;95.56;101542.91;4986356;28;20041;-68
2021/10/27 06:47:06;;;;;;;23.30;17.77;;;;;;;9.76;97.34;101544.97;4985097;28;20090;-67
2021/10/27 06:49:52;;;;;;;21.70;17.98;;;;;;;9.81;96.81;101543.53;4988514;28;20030;-68
2021/10/27 06:52:18;;;;;;;89.75;62.33;;;;;;;9.85;96.81;101536.84;4964194;28;20126;-67
2021/10/27 06:54:48;;;;;;;31.88;23.45;;;;;;;9.78;97.09;101545.94;4962133;28;20113;-65
2021/10/27 06:57:14;;;;;;;27.58;20.15;;;;;;;9.73;96.50;101529.28;4964475;28;20074;-66
2021/10/27 06:59:42;;;;;;;27.15;21.50;;;;;;;9.92;95.88;101553.56;4967610;28;20551;-67
2021/10/27 07:17:51;;;;;;;23.08;17.75;;;;;;;9.95;95.32;101536.56;4931842;29;20533;-66
2021/10/27 07:20:18;;;;;;;498.13;360.67;;;;;;;9.69;94.99;101481.84;4928112;29;20507;-67
2021/10/27 07:22:44;;;;;;;422.25;296.77;;;;;;;10.12;94.78;101555.59;4924507;29;20191;-66
2021/10/27 07:25:10;;;;;;;252.30;156.25;;;;;;;10.25;94.82;101557.16;4929531;29;20040;-67
2021/10/27 07:27:36;;;;;;;242.43;152.52;;;;;;;10.20;95.32;101541.44;4932452;29;20533;-69
2021/10/27 07:30:02;;;;;;;39.85;30.20;;;;;;;10.29;94.77;101540.16;4932249;29;20040;-66
2021/10/27 07:32:29;;;;;;;27.15;20.27;;;;;;;9.75;94.96;101450.34;4916790;29;20027;-68
2021/10/27 07:35:13;;;;;;;26.15;18.55;;;;;;;10.33;94.55;101552.41;4932435;29;20447;-66
2021/10/27 07:40:37;;;;;;;22.88;17.23;;;;;;;10.23;94.11;101550.13;4932898;29;20096;-68
2021/10/27 07:43:09;;;;;;;168.27;148.68;;;;;;;10.19;94.07;101541.31;4931259;29;20032;-70
2021/10/27 07:45:36;;;;;;;24.63;19.73;;;;;;;10.24;94.85;101547.63;4926383;29;20487;-68
2021/10/27 07:48:02;;;;;;;20.52;16.55;;;;;;;10.12;95.27;101544.38;4931563;29;20048;-64
2021/10/27 07:50:28;;;;;;;18.42;15.27;;;;;;;10.18;95.53;101558.53;4931786;29;20040;-65
2021/10/27 07:52:55;;;;;;;22.20;15.45;;;;;;;10.08;95.55;101538.16;4931507;29;20032;-70
2021/10/27 07:55:21;;;;;;;20.65;16.17;;;;;;;10.16;94.80;101552.38;4979998;28;20053;-66
2021/10/27 07:57:47;;;;;;;21.90;15.60;;;;;;;10.15;94.95;101554.88;5012097;28;20018;-65
2021/10/27 08:00:17;;;;;;;42.60;33.38;;;;;;;10.09;94.18;101532.19;5011911;28;20022;-69
2021/10/27 08:02:47;;;;;;;133.73;101.07;;;;;;;10.33;94.67;101547.25;5011862;28;20030;-66
2021/10/27 08:05:12;;;;;;;160.30;124.25;;;;;;;10.36;94.56;101550.06;5009340;28;20025;-71
2021/10/27 08:07:51;;;;;;;103.85;68.57;;;;;;;10.50;94.35;101543.06;5011127;28;20092;-70
2021/10/27 08:10:17;;;;;;;75.32;60.50;;;;;;;10.57;93.96;101549.47;5010068;28;20037;-67
2021/10/27 08:12:44;;;;;;;30.13;22.15;;;;;;;10.36;93.62;101550.94;5011114;28;20034;-68
2021/10/27 08:15:10;;;;;;;210.63;109.35;;;;;;;10.40;93.08;101540.78;5011693;28;20037;-69
2021/10/27 08:17:38;;;;;;;50.00;33.45;;;;;;;10.51;93.06;101543.13;5010782;28;20456;-69
2021/10/27 08:20:05;;;;;;;44.00;27.98;;;;;;;10.60;93.54;101539.28;5011350;28;20488;-69
2021/10/27 08:22:32;;;;;;;20.88;15.13;;;;;;;10.64;92.62;101539.53;5011257;28;20046;-69
2021/10/27 08:24:59;;;;;;;32.53;20.75;;;;;;;10.59;92.62;101522.91;5011487;28;20500;-69
2021/10/27 08:27:26;;;;;;;18.40;13.20;;;;;;;10.76;92.68;101544.47;5011089;28;20029;-69
2021/10/27 08:29:52;;;;;;;16.83;12.88;;;;;;;10.77;90.87;101543.66;5011203;28;20026;-67
2021/10/27 08:35:03;;;;;;;25.95;14.38;;;;;;;10.78;91.49;101545.44;4988691;28;20051;-66
2021/10/27 08:37:29;;;;;;;35.42;22.92;;;;;;;10.87;91.08;101545.03;4989616;28;20104;-69
2021/10/27 08:39:55;;;;;;;42.03;29.55;;;;;;;10.95;91.18;101541.19;4987167;28;20117;-70
2021/10/27 08:42:21;;;;;;;56.03;38.97;;;;;;;10.89;90.73;101522.78;4989233;28;20038;-67
2021/10/27 08:44:46;;;;;;;28.67;19.30;;;;;;;11.13;90.74;101540.38;4989859;28;20416;-67
2021/10/27 08:47:13;;;;;;;16.33;12.95;;;;;;;11.02;89.51;101544.97;4989644;28;20124;-66
2021/10/27 08:49:41;;;;;;;18.73;11.38;;;;;;;11.04;89.66;101550.19;4986532;28;20117;-65
2021/10/27 08:52:10;;;;;;;17.25;11.30;;;;;;;11.05;89.58;101550.28;4988986;28;20467;-69
2021/10/27 08:54:36;;;;;;;24.23;16.42;;;;;;;11.07;88.81;101538.34;4980868;28;20114;-66
2021/10/27 08:57:08;;;;;;;14.38;9.00;;;;;;;11.22;89.57;101547.69;4970585;28;20134;-68
2021/10/27 09:05:01;;;;;;;11.90;8.73;;;;;;;11.33;89.02;101547.44;4971138;28;20094;-67
2021/10/27 09:55:49;;;;;;;11.93;5.53;;;;;;;11.64;91.11;101535.19;4974127;28;20107;-67
2021/10/27 10:04:17;;;;;;;12.10;6.40;;;;;;;11.95;89.79;101529.81;4954727;29;20106;-67
2021/10/27 10:06:48;;;;;;;13.73;6.20;;;;;;;12.03;90.65;101522.44;4954271;29;20220;-67
2021/10/27 10:09:15;;;;;;;13.38;6.18;;;;;;;11.92;90.46;101513.22;4954382;28;20035;-67
2021/10/27 10:11:41;;;;;;;7.45;4.90;;;;;;;11.86;89.96;101513.81;4952140;29;20106;-67
2021/10/27 10:14:09;;;;;;;10.10;5.65;;;;;;;11.74;90.03;101510.63;4934991;29;20048;-67
2021/10/27 10:16:44;;;;;;;14.77;6.80;;;;;;;11.84;92.30;101494.75;4935175;29;20075;-67
2021/10/27 10:19:16;;;;;;;9.90;5.20;;;;;;;11.88;89.99;101500.97;4935139;29;20071;-67
2021/10/27 10:21:44;;;;;;;9.30;5.38;;;;;;;11.97;89.77;101507.50;4934837;29;20556;-67
2021/10/27 10:24:24;;;;;;;11.40;5.68;;;;;;;11.16;90.03;101367.34;4903110;29;20497;-67
2021/10/27 10:26:54;;;;;;;11.38;6.50;;;;;;;12.08;90.38;101499.38;4935132;29;20032;-66
2021/10/27 10:29:39;;;;;;;11.38;5.70;;;;;;;12.13;90.18;101506.50;4934876;29;20083;-66
2021/10/27 10:32:27;;;;;;;9.05;5.30;;;;;;;12.18;89.54;101513.63;4934561;29;20059;-66
2021/10/27 10:34:59;;;;;;;12.25;5.03;;;;;;;12.02;89.09;101506.84;4934738;29;20031;-67
2021/10/27 10:38:08;;;;;;;11.70;5.75;;;;;;;11.63;88.40;101419.59;4946169;28;20105;-67
2021/10/27 10:40:56;;;;;;;9.50;5.78;;;;;;;12.26;88.96;101501.91;4994867;28;20053;-67
2021/10/27 10:44:25;;;;;;;7.63;5.50;;;;;;;11.87;88.45;101414.69;4993200;28;20624;-67
2021/10/27 11:01:48;;;;;;;12.38;6.63;;;;;;;12.37;88.22;101464.44;4994904;28;20042;-67
2021/10/27 11:41:28;;;;;;;6.45;4.80;;;;;;;12.66;84.20;101459.72;5010941;28;20416;-67
2021/10/27 11:43:57;;;;;;;10.30;4.63;;;;;;;12.79;83.26;101459.41;5010911;28;20033;-68
2021/10/27 11:46:40;;;;;;;14.18;5.70;;;;;;;12.87;84.14;101458.88;4994567;28;20045;-67
2021/10/27 11:49:10;;;;;;;12.80;4.93;;;;;;;12.81;83.95;101449.13;5010865;28;20487;-68
2021/10/27 11:51:35;;;;;;;12.38;4.75;;;;;;;12.83;82.69;101438.84;5010723;28;20052;-68
2021/10/27 11:54:14;;;;;;;10.50;4.78;;;;;;;12.92;82.68;101452.19;5010431;28;20033;-67
2021/10/27 11:56:40;;;;;;;9.35;4.55;;;;;;;12.89;83.07;101459.84;5010688;28;20042;-67
2021/10/27 11:59:05;;;;;;;14.05;8.38;;;;;;;12.54;82.66;101397.00;5010759;28;20045;-67
2021/10/27 12:01:34;;;;;;;14.15;6.50;;;;;;;12.64;83.25;101398.28;5010584;28;20116;-67
2021/10/27 12:04:13;;;;;;;7.57;5.35;;;;;;;12.96;82.50;101448.91;5010474;28;20029;-67
2021/10/27 12:17:32;;;;;;;11.00;5.00;;;;;;;13.02;81.40;101446.59;4987117;28;20235;-66
2021/10/27 12:19:58;;;;;;;11.65;5.53;;;;;;;12.91;82.90;101427.06;4971321;28;20038;-67
2021/10/27 12:22:24;;;;;;;41.75;24.42;;;;;;;13.02;82.77;101437.91;4970995;28;20525;-67
2021/10/27 12:24:59;;;;;;;20.83;13.57;;;;;;;13.06;82.33;101432.94;4971127;28;20042;-66
2021/10/27 12:27:35;;;;;;;15.55;9.57;;;;;;;13.11;80.98;101431.41;4971128;28;20520;-67
2021/10/27 12:30:06;;;;;;;6.28;4.25;;;;;;;13.18;79.93;101432.53;4971040;28;20499;-67
2021/10/27 12:32:32;;;;;;;12.07;7.40;;;;;;;13.15;79.68;101409.09;4971006;28;20122;-67
2021/10/27 12:35:16;;;;;;;12.50;7.35;;;;;;;13.27;80.90;101424.25;4971243;28;20583;-66
2021/10/27 12:40:39;;;;;;;7.03;4.10;;;;;;;13.37;79.86;101431.66;4971044;28;20027;-67
2021/10/27 12:43:08;;;;;;;6.97;4.13;;;;;;;13.45;79.64;101434.53;4970979;28;20121;-67
2021/10/27 12:45:42;;;;;;;9.98;4.15;;;;;;;13.56;79.18;101425.47;4970977;28;20057;-67
2021/10/27 12:48:11;;;;;;;7.13;3.78;;;;;;;13.52;78.84;101425.28;4970978;28;20548;-67
2021/10/27 12:50:49;;;;;;;9.73;3.83;;;;;;;13.67;78.74;101430.22;4973927;28;20035;-67
2021/10/27 12:53:15;;;;;;;6.55;3.45;;;;;;;13.48;78.46;101434.66;4993238;28;20129;-66
2021/10/27 12:55:44;;;;;;;11.80;4.43;;;;;;;13.00;78.06;101352.31;5012475;28;20029;-67
2021/10/27 12:58:14;;;;;;;9.40;4.07;;;;;;;13.53;77.83;101429.66;5012413;28;20049;-67
2021/10/27 13:12:04;;;;;;;7.30;3.75;;;;;;;13.46;78.93;101427.63;5011912;28;20026;-67
2021/10/27 13:32:12;;;;;;;9.05;3.58;;;;;;;13.68;76.12;101440.69;5011785;28;20026;-67
2021/10/27 13:34:37;;;;;;;6.13;3.70;;;;;;;13.69;77.55;101437.22;5011818;28;20404;-66
2021/10/27 13:37:06;;;;;;;9.23;4.28;;;;;;;13.77;78.10;101436.66;5011859;28;20026;-66
2021/10/27 13:39:32;;;;;;;7.05;4.10;;;;;;;13.70;77.80;101426.03;5011867;28;20022;-67
2021/10/27 13:42:00;;;;;;;9.73;4.03;;;;;;;13.62;77.25;101440.44;5012007;28;20523;-67
2021/10/27 13:44:30;;;;;;;10.70;4.20;;;;;;;13.56;76.93;101425.47;5011843;28;20030;-66
2021/10/27 14:08:42;;;;;;;28.17;13.68;;;;;;;13.70;75.52;101422.56;5028878;28;20037;-67
2021/10/27 15:19:37;;;;;;;8.32;3.65;;;;;;;13.39;75.65;101370.31;5014242;28;20041;-67
2021/10/27 15:21:14;;;;;;;15.05;5.50;;;;;;;13.62;75.97;101450.81;5014017;28;20057;-65
2021/10/27 15:52:27;;;;;;;21.67;7.45;;;;;;;13.28;78.44;101410.47;5030364;28;20427;-66
2021/10/27 15:54:53;;;;;;;30.67;9.82;;;;;;;13.71;78.35;101489.22;5030266;28;20030;-67
2021/10/27 15:57:19;;;;;;;25.35;8.73;;;;;;;13.65;79.07;101491.56;5030291;28;20040;-67
2021/10/27 15:59:46;;;;;;;18.98;9.05;;;;;;;13.64;78.54;101493.25;5030550;28;20029;-67
2021/10/27 16:02:12;;;;;;;20.02;9.02;;;;;;;13.66;78.18;101491.63;5030352;28;20033;-67
2021/10/27 16:04:39;;;;;;;23.38;8.15;;;;;;;13.56;77.30;101487.75;5030259;28;20037;-67
2021/10/27 16:07:08;;;;;;;27.40;9.02;;;;;;;13.16;78.43;101415.16;5030076;28;20109;-67
2021/10/27 16:09:40;;;;;;;28.85;9.50;;;;;;;13.21;79.54;101424.91;5030284;28;20065;-67
2021/10/27 16:12:06;;;;;;;19.15;9.40;;;;;;;13.66;79.60;101499.41;5029883;28;20029;-67
2021/10/27 16:14:33;;;;;;;25.15;9.95;;;;;;;13.68;79.81;101494.25;4997416;28;20052;-67
2021/10/27 16:16:58;;;;;;;18.67;9.10;;;;;;;13.70;81.65;101496.09;5015889;28;20038;-67
2021/10/27 16:19:24;;;;;;;21.88;9.40;;;;;;;13.21;81.46;101424.03;5012904;28;20029;-67
2021/10/27 16:21:49;;;;;;;24.88;10.77;;;;;;;13.63;82.49;101506.16;5012652;28;20045;-67
2021/10/27 16:24:16;;;;;;;50.53;27.38;;;;;;;13.55;81.71;101498.94;5013092;28;20033;-66
2021/10/27 16:26:42;;;;;;;64.60;35.33;;;;;;;13.59;80.34;101511.25;5012696;28;20048;-68
2021/10/27 16:29:08;;;;;;;68.32;39.65;;;;;;;13.59;80.77;101510.34;5012885;28;20468;-67